Time;durP1;ratioP1;P1;durP2;ratioP2;P2;SDS_P1;SDS_P2;PMS_P1;PMS_P2;Temp;Humidity;BMP_temperature;BMP_pressure;BME280_temperature;BME280_humidity;BME280_pressure;Samples;Min_cycle;Max_cycle;Signal;HPM_P1;HPM_P2
2023/08/27 00:01:34;;;;;;;63.15;9.95;;;;;;;;;;5014358;28;20029;-40
2023/08/27 00:04:01;;;;;;;54.58;9.13;;;;;;;;;;5011988;28;20056;-40
2023/08/27 00:06:28;;;;;;;48.67;9.88;;;;;;;;;;5013363;28;20056;-40
2023/08/27 00:08:55;;;;;;;42.60;9.63;;;;;;;;;;5013906;28;20064;-41
2023/08/27 00:11:22;;;;;;;56.20;9.88;;;;;;;;;;5013426;28;20484;-41
2023/08/27 00:13:49;;;;;;;51.95;9.15;;;;;;;;;;5014172;28;20022;-38
2023/08/27 00:16:16;;;;;;;50.05;8.90;;;;;;;;;;5013848;28;20033;-40
2023/08/27 00:18:43;;;;;;;58.88;10.40;;;;;;;;;;5013586;28;20530;-40
2023/08/27 00:21:10;;;;;;;45.05;8.75;;;;;;;;;;5013602;28;20036;-41
2023/08/27 00:23:40;;;;;;;55.47;10.10;;;;;;;;;;5013539;28;20029;-42
2023/08/27 00:26:07;;;;;;;50.95;9.95;;;;;;;;;;5009887;28;20030;-40
2023/08/27 00:28:34;;;;;;;47.33;9.05;;;;;;;;;;5013743;28;20076;-41
2023/08/27 00:31:04;;;;;;;51.35;9.70;;;;;;;;;;5013491;28;20053;-41
2023/08/27 00:33:31;;;;;;;58.95;11.38;;;;;;;;;;5012794;28;20072;-41
2023/08/27 00:35:58;;;;;;;53.22;10.70;;;;;;;;;;5012723;28;20048;-39
2023/08/27 00:38:25;;;;;;;46.70;10.38;;;;;;;;;;5013005;28;20103;-41
2023/08/27 00:40:53;;;;;;;55.95;10.52;;;;;;;;;;5013566;28;20022;-41
2023/08/27 00:43:20;;;;;;;54.05;11.52;;;;;;;;;;5013933;28;20022;-42
2023/08/27 00:45:47;;;;;;;58.20;11.07;;;;;;;;;;5012337;28;20443;-42
2023/08/27 00:48:14;;;;;;;46.90;10.57;;;;;;;;;;5012324;28;20410;-41
2023/08/27 00:50:41;;;;;;;50.63;10.38;;;;;;;;;;5013478;28;20048;-43
2023/08/27 00:53:08;;;;;;;49.10;10.68;;;;;;;;;;5013421;28;20072;-40
2023/08/27 00:55:35;;;;;;;59.75;12.07;;;;;;;;;;5012952;28;20046;-40
2023/08/27 00:58:03;;;;;;;46.70;14.20;;;;;;;;;;5013748;28;20076;-40
2023/08/27 01:00:31;;;;;;;58.97;18.00;;;;;;;;;;5013463;28;20471;-40
2023/08/27 01:02:58;;;;;;;63.00;22.10;;;;;;;;;;5013766;28;20391;-39
2023/08/27 01:05:26;;;;;;;52.47;21.00;;;;;;;;;;5013328;28;20137;-41
2023/08/27 01:07:56;;;;;;;60.05;20.52;;;;;;;;;;5012535;28;20037;-40
2023/08/27 01:10:36;;;;;;;58.95;21.63;;;;;;;;;;5013714;28;20088;-40
2023/08/27 01:13:05;;;;;;;55.60;21.83;;;;;;;;;;5010050;28;20061;-40
2023/08/27 01:15:32;;;;;;;58.00;19.58;;;;;;;;;;5004934;28;20034;-40
2023/08/27 01:18:00;;;;;;;62.00;20.88;;;;;;;;;;5008788;28;20129;-40
2023/08/27 01:20:27;;;;;;;60.33;20.63;;;;;;;;;;5013378;28;20456;-40
2023/08/27 01:22:55;;;;;;;59.92;20.00;;;;;;;;;;5013140;28;20046;-40
2023/08/27 01:25:28;;;;;;;60.65;20.67;;;;;;;;;;5013488;28;20084;-40
2023/08/27 01:27:55;;;;;;;57.08;20.92;;;;;;;;;;5012683;28;20030;-41
2023/08/27 01:30:24;;;;;;;51.78;19.60;;;;;;;;;;5013388;28;20435;-40
2023/08/27 01:33:00;;;;;;;57.30;20.27;;;;;;;;;;5012888;28;20079;-40
2023/08/27 01:35:29;;;;;;;54.90;18.70;;;;;;;;;;5013157;28;20029;-40
2023/08/27 01:37:56;;;;;;;59.80;20.23;;;;;;;;;;5012225;28;20065;-40
2023/08/27 01:40:23;;;;;;;53.67;19.65;;;;;;;;;;5012395;28;20033;-41
2023/08/27 01:42:50;;;;;;;58.58;19.15;;;;;;;;;;5012621;28;20476;-41
2023/08/27 01:45:17;;;;;;;49.95;17.80;;;;;;;;;;5012911;28;20388;-40
2023/08/27 01:47:44;;;;;;;47.83;17.55;;;;;;;;;;5009392;28;20912;-40
2023/08/27 01:50:11;;;;;;;52.90;17.83;;;;;;;;;;5010088;28;20500;-41
2023/08/27 01:52:38;;;;;;;50.47;17.02;;;;;;;;;;5007159;28;20032;-41
2023/08/27 01:55:06;;;;;;;44.03;15.82;;;;;;;;;;5004894;28;20030;-41
2023/08/27 01:57:34;;;;;;;40.95;17.55;;;;;;;;;;5010600;28;20064;-39
2023/08/27 02:00:01;;;;;;;49.58;18.15;;;;;;;;;;5010695;28;20030;-41
2023/08/27 02:02:28;;;;;;;45.10;16.20;;;;;;;;;;5006280;28;20144;-41
2023/08/27 02:04:55;;;;;;;47.22;17.52;;;;;;;;;;5010059;28;20033;-40
2023/08/27 02:07:22;;;;;;;45.15;16.50;;;;;;;;;;4999597;28;20030;-40
2023/08/27 02:09:49;;;;;;;47.25;17.48;;;;;;;;;;4996220;28;20056;-40
2023/08/27 02:12:16;;;;;;;45.85;16.42;;;;;;;;;;5008611;28;20040;-40
2023/08/27 02:14:43;;;;;;;42.58;16.30;;;;;;;;;;5010702;28;20103;-41
2023/08/27 02:17:10;;;;;;;38.90;15.90;;;;;;;;;;5014210;28;20039;-40
2023/08/27 02:19:37;;;;;;;41.28;16.60;;;;;;;;;;5003808;28;20117;-41
2023/08/27 02:22:04;;;;;;;45.80;16.10;;;;;;;;;;5009316;28;20034;-41
2023/08/27 02:24:31;;;;;;;38.38;15.68;;;;;;;;;;5011867;28;20405;-42
2023/08/27 02:26:58;;;;;;;41.83;15.88;;;;;;;;;;5012709;28;20126;-40
2023/08/27 02:29:25;;;;;;;40.45;16.05;;;;;;;;;;5012542;28;20476;-41
2023/08/27 02:31:52;;;;;;;43.13;15.68;;;;;;;;;;5012736;28;20030;-40
2023/08/27 02:34:20;;;;;;;40.95;16.00;;;;;;;;;;5012274;28;20069;-41
2023/08/27 02:36:47;;;;;;;46.40;16.00;;;;;;;;;;5012183;28;20387;-40
2023/08/27 02:39:14;;;;;;;41.47;16.75;;;;;;;;;;5012321;28;20060;-40
2023/08/27 02:41:41;;;;;;;43.47;15.48;;;;;;;;;;5012262;28;20041;-40
2023/08/27 02:44:08;;;;;;;35.75;14.35;;;;;;;;;;5012433;28;20372;-40
2023/08/27 02:46:35;;;;;;;40.17;15.57;;;;;;;;;;5011443;28;20022;-40
2023/08/27 02:49:02;;;;;;;34.50;14.23;;;;;;;;;;5012070;28;20030;-40
2023/08/27 02:51:29;;;;;;;37.72;16.02;;;;;;;;;;5012229;28;20053;-41
2023/08/27 02:53:56;;;;;;;54.88;18.13;;;;;;;;;;5011308;28;20028;-40
2023/08/27 02:56:23;;;;;;;42.28;15.85;;;;;;;;;;5012003;28;20049;-40
2023/08/27 02:58:50;;;;;;;48.30;15.27;;;;;;;;;;5011652;28;20029;-41
2023/08/27 03:01:21;;;;;;;38.55;15.55;;;;;;;;;;5008246;28;20420;-41
2023/08/27 03:03:48;;;;;;;44.47;15.13;;;;;;;;;;4996841;28;20040;-41
2023/08/27 03:06:15;;;;;;;40.42;16.05;;;;;;;;;;4997767;28;20030;-40
2023/08/27 03:08:42;;;;;;;45.13;15.40;;;;;;;;;;4992245;28;20023;-41
2023/08/27 03:11:09;;;;;;;40.08;14.90;;;;;;;;;;4992220;28;20041;-41
2023/08/27 03:13:37;;;;;;;42.30;13.93;;;;;;;;;;5001541;28;20046;-41
2023/08/27 03:16:03;;;;;;;31.83;14.35;;;;;;;;;;5011450;28;20026;-41
2023/08/27 03:18:31;;;;;;;36.92;14.45;;;;;;;;;;5011722;28;20107;-40
2023/08/27 03:20:58;;;;;;;47.17;15.15;;;;;;;;;;5011754;28;20052;-41
2023/08/27 03:23:25;;;;;;;42.47;14.40;;;;;;;;;;5011596;28;20441;-41
2023/08/27 03:25:52;;;;;;;45.88;14.40;;;;;;;;;;5011005;28;20046;-40
2023/08/27 03:28:19;;;;;;;40.50;13.93;;;;;;;;;;5003775;28;20536;-41
2023/08/27 03:30:46;;;;;;;44.42;14.07;;;;;;;;;;5006444;28;20396;-41
2023/08/27 03:33:13;;;;;;;46.45;13.90;;;;;;;;;;5002546;28;20018;-41
2023/08/27 03:35:41;;;;;;;33.78;13.20;;;;;;;;;;4994260;28;20034;-44
2023/08/27 03:38:08;;;;;;;50.25;12.88;;;;;;;;;;5011534;28;20112;-41
2023/08/27 03:40:35;;;;;;;38.17;12.55;;;;;;;;;;5011294;28;20487;-40
2023/08/27 03:43:02;;;;;;;35.88;12.35;;;;;;;;;;5011351;28;20181;-40
2023/08/27 03:45:29;;;;;;;35.75;11.52;;;;;;;;;;5011166;28;20025;-40
2023/08/27 03:47:56;;;;;;;32.28;11.55;;;;;;;;;;5011216;28;20129;-41
2023/08/27 03:50:23;;;;;;;31.27;11.60;;;;;;;;;;5011115;28;20049;-40
2023/08/27 03:52:50;;;;;;;24.33;10.43;;;;;;;;;;5011341;28;20025;-41
2023/08/27 03:55:18;;;;;;;24.90;10.27;;;;;;;;;;5011099;28;20032;-41
2023/08/27 03:57:45;;;;;;;28.90;10.75;;;;;;;;;;5003133;28;20046;-41
2023/08/27 04:00:13;;;;;;;33.22;10.52;;;;;;;;;;5005491;28;20036;-41
2023/08/27 04:02:40;;;;;;;23.52;9.43;;;;;;;;;;5011258;28;20025;-42
2023/08/27 04:05:07;;;;;;;28.15;9.60;;;;;;;;;;5011204;28;20492;-41
2023/08/27 04:07:34;;;;;;;28.10;10.07;;;;;;;;;;5011172;28;20025;-42
2023/08/27 04:10:01;;;;;;;31.60;9.80;;;;;;;;;;5011163;28;20069;-41
2023/08/27 04:12:28;;;;;;;25.40;9.85;;;;;;;;;;5011344;28;20761;-41
2023/08/27 04:14:55;;;;;;;23.00;9.10;;;;;;;;;;5011030;28;20053;-42
2023/08/27 04:17:22;;;;;;;26.98;8.27;;;;;;;;;;5010768;28;20053;-41
2023/08/27 04:19:49;;;;;;;28.35;9.02;;;;;;;;;;5008291;28;20100;-41
2023/08/27 04:22:16;;;;;;;29.05;9.10;;;;;;;;;;5009575;28;20025;-41
2023/08/27 04:24:43;;;;;;;25.70;8.77;;;;;;;;;;5009035;28;20104;-42
2023/08/27 04:27:10;;;;;;;24.80;8.98;;;;;;;;;;5010883;28;20030;-40
2023/08/27 04:29:37;;;;;;;29.75;8.80;;;;;;;;;;5010804;28;20026;-40
2023/08/27 04:32:04;;;;;;;25.33;9.27;;;;;;;;;;5011083;28;20447;-41
2023/08/27 04:34:31;;;;;;;22.23;8.40;;;;;;;;;;5011214;28;20022;-41
2023/08/27 04:37:00;;;;;;;22.95;8.13;;;;;;;;;;5011322;28;20026;-41
2023/08/27 04:39:28;;;;;;;20.75;7.78;;;;;;;;;;5011242;28;20034;-41
2023/08/27 04:41:54;;;;;;;20.38;8.05;;;;;;;;;;5011792;28;20037;-41
2023/08/27 04:44:21;;;;;;;19.27;7.90;;;;;;;;;;5014652;28;20029;-41
2023/08/27 04:46:49;;;;;;;21.23;8.18;;;;;;;;;;5014667;28;20038;-41
2023/08/27 04:49:16;;;;;;;21.55;7.28;;;;;;;;;;5014724;28;20080;-41
2023/08/27 04:51:43;;;;;;;22.92;7.18;;;;;;;;;;5014959;28;20049;-41
2023/08/27 04:54:10;;;;;;;22.10;7.15;;;;;;;;;;5014750;28;20105;-41
2023/08/27 04:56:37;;;;;;;20.02;7.38;;;;;;;;;;5014479;28;20030;-41
2023/08/27 04:59:03;;;;;;;18.70;6.95;;;;;;;;;;5014699;28;20018;-41
2023/08/27 05:01:30;;;;;;;20.10;7.53;;;;;;;;;;5014602;28;20054;-41
2023/08/27 05:03:57;;;;;;;14.65;6.70;;;;;;;;;;5014632;28;20022;-41
2023/08/27 05:06:24;;;;;;;18.95;6.88;;;;;;;;;;5014474;28;20476;-41
2023/08/27 05:08:51;;;;;;;15.07;6.68;;;;;;;;;;5014479;28;20065;-41
2023/08/27 05:11:18;;;;;;;17.13;6.60;;;;;;;;;;5014429;28;20388;-41
2023/08/27 05:13:45;;;;;;;14.00;6.50;;;;;;;;;;5014388;28;20014;-43
2023/08/27 05:16:12;;;;;;;22.08;6.53;;;;;;;;;;5014235;28;20105;-41
2023/08/27 05:18:39;;;;;;;15.90;6.70;;;;;;;;;;5014083;28;20472;-41
2023/08/27 05:21:06;;;;;;;15.75;6.55;;;;;;;;;;5014379;28;20014;-41
2023/08/27 05:23:33;;;;;;;13.10;5.97;;;;;;;;;;5014153;28;20021;-41
2023/08/27 05:26:01;;;;;;;16.92;6.13;;;;;;;;;;5014265;28;20037;-41
2023/08/27 05:28:28;;;;;;;12.30;5.40;;;;;;;;;;5014161;28;20025;-41
2023/08/27 05:30:54;;;;;;;11.93;5.30;;;;;;;;;;5014122;28;20471;-41
2023/08/27 05:33:21;;;;;;;13.45;5.50;;;;;;;;;;5014078;28;20026;-41
2023/08/27 05:35:49;;;;;;;14.35;5.85;;;;;;;;;;5013983;28;20026;-41
2023/08/27 05:38:16;;;;;;;14.40;6.13;;;;;;;;;;5013529;28;20057;-41
2023/08/27 05:40:43;;;;;;;13.85;5.20;;;;;;;;;;5013858;28;20546;-41
2023/08/27 05:43:10;;;;;;;13.32;5.13;;;;;;;;;;5013858;28;20028;-41
2023/08/27 05:45:37;;;;;;;12.02;5.20;;;;;;;;;;5013677;28;20099;-41
2023/08/27 05:48:04;;;;;;;13.60;5.07;;;;;;;;;;5013564;28;20070;-41
2023/08/27 05:50:34;;;;;;;11.25;4.88;;;;;;;;;;5013751;28;20029;-41
2023/08/27 05:53:02;;;;;;;12.30;4.88;;;;;;;;;;5013361;28;20040;-41
2023/08/27 05:55:29;;;;;;;11.52;5.15;;;;;;;;;;5013167;28;20030;-41
2023/08/27 05:57:55;;;;;;;8.93;4.47;;;;;;;;;;5013507;28;20113;-42
2023/08/27 06:00:22;;;;;;;10.38;4.90;;;;;;;;;;5013578;28;20454;-41
2023/08/27 06:02:49;;;;;;;10.25;4.53;;;;;;;;;;5012292;28;20022;-41
2023/08/27 06:05:16;;;;;;;9.93;4.47;;;;;;;;;;5013322;28;20101;-41
2023/08/27 06:07:43;;;;;;;11.48;4.43;;;;;;;;;;5013288;28;20026;-41
2023/08/27 06:10:10;;;;;;;11.80;4.50;;;;;;;;;;5013362;28;20041;-41
2023/08/27 06:12:37;;;;;;;12.02;4.35;;;;;;;;;;5013375;28;20072;-41
2023/08/27 06:15:04;;;;;;;10.38;4.20;;;;;;;;;;5013219;28;20105;-41
2023/08/27 06:17:31;;;;;;;9.90;3.55;;;;;;;;;;5013156;28;20030;-41
2023/08/27 06:19:58;;;;;;;11.38;4.22;;;;;;;;;;5013161;28;20022;-41
2023/08/27 06:22:25;;;;;;;8.48;3.95;;;;;;;;;;5012934;28;20029;-41
2023/08/27 06:24:52;;;;;;;8.13;3.65;;;;;;;;;;5012719;28;20025;-40
2023/08/27 06:27:19;;;;;;;10.43;3.92;;;;;;;;;;5013062;28;20030;-42
2023/08/27 06:29:46;;;;;;;7.72;3.65;;;;;;;;;;5013038;28;20040;-42
2023/08/27 06:32:16;;;;;;;8.93;3.60;;;;;;;;;;5012801;28;20038;-41
2023/08/27 06:34:43;;;;;;;7.65;3.92;;;;;;;;;;5012779;28;20028;-42
2023/08/27 06:37:10;;;;;;;7.63;3.78;;;;;;;;;;5013015;28;20038;-41
2023/08/27 06:39:41;;;;;;;9.80;3.42;;;;;;;;;;5012804;28;20022;-41
2023/08/27 06:42:12;;;;;;;6.75;3.45;;;;;;;;;;5012616;28;20033;-40
2023/08/27 06:44:44;;;;;;;8.63;3.65;;;;;;;;;;5012483;28;20487;-41
2023/08/27 06:47:11;;;;;;;9.07;3.38;;;;;;;;;;5012283;28;20530;-40
2023/08/27 06:49:38;;;;;;;7.32;3.63;;;;;;;;;;5012654;28;20030;-41
2023/08/27 06:52:05;;;;;;;6.18;3.20;;;;;;;;;;5012460;28;20057;-41
2023/08/27 06:54:32;;;;;;;5.38;3.10;;;;;;;;;;5012381;28;20030;-41
2023/08/27 06:56:59;;;;;;;6.40;3.33;;;;;;;;;;5012382;28;20087;-41
2023/08/27 06:59:26;;;;;;;6.90;3.13;;;;;;;;;;5012543;28;20786;-41
2023/08/27 07:01:53;;;;;;;5.18;2.83;;;;;;;;;;5012257;28;20584;-42
2023/08/27 07:04:20;;;;;;;7.57;3.10;;;;;;;;;;5011847;28;20034;-41
2023/08/27 07:06:47;;;;;;;4.50;2.55;;;;;;;;;;5012103;28;20096;-40
2023/08/27 07:09:14;;;;;;;6.20;2.90;;;;;;;;;;5010859;28;20368;-40
2023/08/27 07:11:41;;;;;;;6.45;3.05;;;;;;;;;;5012321;28;20029;-41
2023/08/27 07:14:08;;;;;;;7.32;2.88;;;;;;;;;;5012314;28;20447;-41
2023/08/27 07:16:36;;;;;;;5.85;2.80;;;;;;;;;;5012082;28;20037;-42
2023/08/27 07:19:03;;;;;;;6.05;2.67;;;;;;;;;;5012054;28;20030;-40
2023/08/27 07:21:30;;;;;;;6.10;2.67;;;;;;;;;;5012082;28;20109;-41
2023/08/27 07:23:57;;;;;;;5.22;2.50;;;;;;;;;;5012068;28;20080;-41
2023/08/27 07:26:25;;;;;;;7.80;3.47;;;;;;;;;;5011896;28;20034;-41
2023/08/27 07:28:52;;;;;;;5.32;2.78;;;;;;;;;;5011904;28;20033;-41
2023/08/27 07:31:19;;;;;;;5.50;2.65;;;;;;;;;;5012010;28;20391;-41
2023/08/27 07:33:45;;;;;;;6.60;2.67;;;;;;;;;;5011983;28;20076;-40
2023/08/27 07:36:12;;;;;;;4.97;2.42;;;;;;;;;;5011792;28;20553;-41
2023/08/27 07:38:41;;;;;;;9.15;2.40;;;;;;;;;;5011844;28;20444;-41
2023/08/27 07:41:08;;;;;;;4.68;2.33;;;;;;;;;;5011954;28;20057;-41
2023/08/27 07:43:35;;;;;;;5.35;2.47;;;;;;;;;;5011818;28;20097;-40
2023/08/27 07:46:02;;;;;;;5.07;2.10;;;;;;;;;;5011708;28;20026;-41
2023/08/27 07:48:30;;;;;;;3.60;2.10;;;;;;;;;;5011608;28;20046;-42
2023/08/27 07:50:58;;;;;;;7.05;2.65;;;;;;;;;;5011663;28;20092;-41
2023/08/27 07:53:25;;;;;;;5.57;2.65;;;;;;;;;;5011970;28;20026;-41
2023/08/27 07:55:52;;;;;;;5.05;2.10;;;;;;;;;;5010284;28;20381;-41
2023/08/27 07:58:19;;;;;;;4.25;2.05;;;;;;;;;;5011552;28;20373;-41
2023/08/27 08:00:46;;;;;;;4.35;2.10;;;;;;;;;;5011624;28;20034;-43
2023/08/27 08:03:13;;;;;;;4.75;2.15;;;;;;;;;;5011711;28;20026;-41
2023/08/27 08:05:40;;;;;;;4.20;2.10;;;;;;;;;;5011554;28;20055;-41
2023/08/27 08:08:07;;;;;;;3.45;1.80;;;;;;;;;;5011599;28;20083;-41
2023/08/27 08:10:34;;;;;;;2.95;1.83;;;;;;;;;;5011578;28;20022;-41
2023/08/27 08:13:01;;;;;;;3.28;2.05;;;;;;;;;;5011628;28;20377;-41
2023/08/27 08:15:28;;;;;;;5.88;1.95;;;;;;;;;;5011478;28;20052;-41
2023/08/27 08:17:55;;;;;;;4.13;1.83;;;;;;;;;;5015099;28;20025;-41
2023/08/27 08:20:22;;;;;;;5.78;2.10;;;;;;;;;;5015447;28;20041;-41
2023/08/27 08:22:49;;;;;;;3.67;1.85;;;;;;;;;;5015417;28;20164;-41
2023/08/27 08:25:16;;;;;;;3.03;1.73;;;;;;;;;;5015279;28;20022;-41
2023/08/27 08:27:43;;;;;;;6.63;1.98;;;;;;;;;;5015238;28;20096;-41
2023/08/27 08:30:10;;;;;;;5.32;1.88;;;;;;;;;;5015250;28;20037;-42
2023/08/27 08:32:37;;;;;;;5.30;1.80;;;;;;;;;;5015249;28;20041;-41
2023/08/27 08:35:04;;;;;;;5.95;2.30;;;;;;;;;;5015180;28;20021;-41
2023/08/27 08:37:31;;;;;;;3.40;1.60;;;;;;;;;;5015126;28;20038;-41
2023/08/27 08:39:57;;;;;;;2.80;1.70;;;;;;;;;;5015036;28;20026;-40
2023/08/27 08:42:24;;;;;;;2.20;1.50;;;;;;;;;;5015029;28;20045;-42
2023/08/27 08:45:10;;;;;;;4.47;1.90;;;;;;;;;;5014931;28;20030;-41
2023/08/27 08:47:37;;;;;;;5.45;1.75;;;;;;;;;;5014825;28;20045;-40
2023/08/27 08:50:06;;;;;;;4.60;1.75;;;;;;;;;;5014860;28;20029;-41
2023/08/27 08:52:37;;;;;;;4.03;2.00;;;;;;;;;;5014833;28;20022;-41
2023/08/27 08:55:05;;;;;;;4.90;1.83;;;;;;;;;;5014688;28;20022;-41
2023/08/27 08:57:34;;;;;;;3.55;1.50;;;;;;;;;;5014621;28;20041;-41
2023/08/27 09:00:02;;;;;;;3.08;1.80;;;;;;;;;;5014333;28;20436;-40
2023/08/27 09:02:29;;;;;;;3.47;1.75;;;;;;;;;;5014573;28;20057;-41
2023/08/27 09:04:57;;;;;;;3.40;1.38;;;;;;;;;;5014515;28;20097;-42
2023/08/27 09:07:24;;;;;;;3.03;1.48;;;;;;;;;;5014542;28;20424;-41
2023/08/27 09:09:52;;;;;;;2.58;1.63;;;;;;;;;;5014533;28;20109;-41
2023/08/27 09:12:20;;;;;;;3.50;1.52;;;;;;;;;;5014476;28;20091;-40
2023/08/27 09:14:48;;;;;;;3.03;1.50;;;;;;;;;;5014330;28;20026;-40
2023/08/27 09:17:19;;;;;;;5.38;1.60;;;;;;;;;;5014268;28;20030;-40
2023/08/27 09:19:47;;;;;;;3.17;1.60;;;;;;;;;;5014233;28;20022;-40
2023/08/27 09:22:17;;;;;;;4.47;1.63;;;;;;;;;;5014223;28;20105;-40
2023/08/27 09:24:44;;;;;;;2.88;1.63;;;;;;;;;;5014197;28;20018;-41
2023/08/27 09:27:13;;;;;;;2.78;1.20;;;;;;;;;;5014069;28;20034;-40
2023/08/27 09:29:41;;;;;;;3.05;1.40;;;;;;;;;;5013667;28;20022;-40
2023/08/27 09:32:08;;;;;;;3.63;1.30;;;;;;;;;;5014071;28;20033;-41
2023/08/27 09:34:40;;;;;;;2.42;1.20;;;;;;;;;;5013868;28;20057;-41
2023/08/27 09:37:07;;;;;;;5.28;1.35;;;;;;;;;;5014080;28;20116;-43
2023/08/27 09:39:34;;;;;;;2.92;1.15;;;;;;;;;;5013983;28;20830;-40
2023/08/27 09:42:01;;;;;;;3.08;1.58;;;;;;;;;;5013906;28;20022;-41
2023/08/27 09:44:29;;;;;;;3.78;1.30;;;;;;;;;;5008711;28;20042;-41
2023/08/27 09:47:03;;;;;;;2.00;1.20;;;;;;;;;;4994314;28;20456;-41
2023/08/27 09:49:30;;;;;;;2.47;1.10;;;;;;;;;;4994452;28;20030;-41
2023/08/27 09:51:58;;;;;;;4.13;1.30;;;;;;;;;;4994156;28;20026;-41
2023/08/27 09:54:34;;;;;;;2.38;1.20;;;;;;;;;;4993992;28;20545;-41
2023/08/27 09:57:01;;;;;;;3.45;1.33;;;;;;;;;;4994007;28;20131;-41
2023/08/27 09:59:30;;;;;;;3.90;1.23;;;;;;;;;;4993988;28;20033;-41
2023/08/27 10:01:57;;;;;;;1.92;1.00;;;;;;;;;;4994284;28;20366;-41
2023/08/27 10:04:24;;;;;;;2.97;1.20;;;;;;;;;;4993681;28;20025;-41
2023/08/27 10:06:51;;;;;;;2.72;1.23;;;;;;;;;;4993831;28;20026;-41
2023/08/27 10:09:18;;;;;;;2.85;1.30;;;;;;;;;;4993865;28;20043;-41
2023/08/27 10:11:46;;;;;;;5.18;1.23;;;;;;;;;;4993759;28;20477;-41
2023/08/27 10:14:15;;;;;;;2.95;1.30;;;;;;;;;;4993588;28;20029;-42
2023/08/27 10:16:42;;;;;;;3.53;1.50;;;;;;;;;;4993510;28;20034;-41
2023/08/27 10:19:10;;;;;;;2.00;1.05;;;;;;;;;;4993700;28;20098;-41
2023/08/27 10:21:37;;;;;;;2.55;1.08;;;;;;;;;;4993675;28;20022;-41
2023/08/27 10:24:05;;;;;;;3.15;1.10;;;;;;;;;;4993455;28;20085;-41
2023/08/27 10:26:32;;;;;;;2.60;1.05;;;;;;;;;;4993527;28;20050;-41
2023/08/27 10:29:00;;;;;;;2.17;1.20;;;;;;;;;;4993458;28;20469;-41
2023/08/27 10:31:27;;;;;;;3.25;0.80;;;;;;;;;;4993361;28;20062;-41
2023/08/27 10:33:54;;;;;;;3.55;1.10;;;;;;;;;;4993263;28;20092;-41
2023/08/27 10:36:24;;;;;;;1.55;0.80;;;;;;;;;;4993294;28;20034;-41
2023/08/27 10:38:51;;;;;;;3.10;1.05;;;;;;;;;;4992952;28;20038;-41
2023/08/27 10:41:19;;;;;;;2.33;1.20;;;;;;;;;;4992427;28;20023;-41
2023/08/27 10:43:46;;;;;;;2.92;1.10;;;;;;;;;;4993262;28;20026;-41
2023/08/27 10:46:16;;;;;;;4.93;0.88;;;;;;;;;;4993151;28;20484;-41
2023/08/27 10:48:53;;;;;;;2.10;0.90;;;;;;;;;;4992887;28;20120;-41
2023/08/27 10:51:21;;;;;;;2.05;0.90;;;;;;;;;;5004801;28;20060;-41
2023/08/27 10:53:51;;;;;;;3.08;1.05;;;;;;;;;;5011965;28;20061;-41
2023/08/27 10:56:29;;;;;;;1.38;0.90;;;;;;;;;;5012603;28;20025;-41
2023/08/27 10:59:02;;;;;;;1.00;0.80;;;;;;;;;;5012374;28;20116;-41
2023/08/27 11:01:29;;;;;;;3.10;1.00;;;;;;;;;;5012385;28;20093;-41
2023/08/27 11:04:04;;;;;;;4.15;1.10;;;;;;;;;;5012313;28;20547;-41
2023/08/27 11:06:34;;;;;;;2.88;1.10;;;;;;;;;;5012618;28;20073;-40
2023/08/27 11:09:02;;;;;;;2.30;0.80;;;;;;;;;;5012348;28;20030;-42
2023/08/27 11:11:31;;;;;;;4.03;0.80;;;;;;;;;;5012063;28;20112;-42
2023/08/27 11:14:11;;;;;;;4.13;0.88;;;;;;;;;;5011609;28;20038;-41
2023/08/27 11:16:59;;;;;;;2.65;0.80;;;;;;;;;;5007770;28;20053;-41
2023/08/27 11:19:28;;;;;;;2.47;0.88;;;;;;;;;;5009878;28;20057;-40
2023/08/27 11:22:05;;;;;;;4.47;1.00;;;;;;;;;;5012238;28;20062;-40
2023/08/27 11:24:32;;;;;;;3.05;0.88;;;;;;;;;;5011977;28;20052;-41
2023/08/27 11:27:03;;;;;;;2.53;0.98;;;;;;;;;;5011670;28;20544;-41
2023/08/27 11:29:31;;;;;;;1.50;0.77;;;;;;;;;;5011989;28;20491;-41
2023/08/27 11:32:00;;;;;;;4.90;1.20;;;;;;;;;;5001513;28;20034;-44
2023/08/27 11:34:34;;;;;;;4.70;1.27;;;;;;;;;;5007407;28;20042;-41
2023/08/27 11:37:03;;;;;;;13.02;1.30;;;;;;;;;;5009750;28;20097;-42
2023/08/27 11:39:31;;;;;;;5.25;1.10;;;;;;;;;;5008385;28;20034;-40
2023/08/27 11:41:58;;;;;;;5.88;0.85;;;;;;;;;;5009868;28;20080;-42
2023/08/27 11:44:25;;;;;;;6.63;1.10;;;;;;;;;;5007973;28;20037;-46
2023/08/27 11:46:52;;;;;;;4.97;1.08;;;;;;;;;;5001600;28;20480;-42
2023/08/27 11:49:32;;;;;;;2.55;0.93;;;;;;;;;;5000234;28;20028;-43
2023/08/27 11:52:00;;;;;;;3.45;1.40;;;;;;;;;;5004032;28;20061;-43
2023/08/27 11:54:34;;;;;;;8.65;1.45;;;;;;;;;;5008293;28;20026;-43
2023/08/27 11:57:06;;;;;;;7.85;1.23;;;;;;;;;;5008462;28;20045;-43
2023/08/27 11:59:33;;;;;;;6.22;1.50;;;;;;;;;;5015947;28;20032;-45
2023/08/27 12:02:02;;;;;;;4.90;1.20;;;;;;;;;;5018033;28;20038;-48
2023/08/27 12:04:30;;;;;;;5.50;1.33;;;;;;;;;;5017807;28;20108;-41
2023/08/27 12:07:01;;;;;;;12.52;1.50;;;;;;;;;;5013688;28;20112;-45
2023/08/27 12:09:29;;;;;;;32.13;2.38;;;;;;;;;;5005043;28;20037;-45
2023/08/27 12:12:02;;;;;;;6.93;1.30;;;;;;;;;;5011253;28;20045;-47
2023/08/27 12:14:29;;;;;;;5.47;1.10;;;;;;;;;;5016097;28;20033;-44
2023/08/27 12:17:03;;;;;;;8.63;1.20;;;;;;;;;;5016144;28;20034;-43
2023/08/27 12:19:30;;;;;;;9.20;1.40;;;;;;;;;;5012455;28;20099;-44
2023/08/27 12:21:58;;;;;;;9.52;1.20;;;;;;;;;;5017369;28;20068;-45
2023/08/27 12:24:29;;;;;;;3.60;1.02;;;;;;;;;;5012359;28;20083;-43
2023/08/27 12:27:06;;;;;;;2.05;0.90;;;;;;;;;;5016511;28;20541;-43
2023/08/27 12:29:42;;;;;;;5.60;1.10;;;;;;;;;;5006541;28;20065;-42
2023/08/27 12:32:09;;;;;;;5.15;1.10;;;;;;;;;;5014944;28;20022;-43
2023/08/27 12:34:40;;;;;;;6.05;1.02;;;;;;;;;;5014118;28;20034;-41
2023/08/27 12:37:08;;;;;;;7.30;1.00;;;;;;;;;;5013118;28;20033;-41
2023/08/27 12:39:38;;;;;;;9.73;1.90;;;;;;;;;;5014703;28;20032;-46
2023/08/27 12:42:05;;;;;;;46.97;9.02;;;;;;;;;;5010143;28;20506;-46
2023/08/27 12:44:32;;;;;;;104.82;26.30;;;;;;;;;;5014461;28;20030;-44
2023/08/27 12:46:59;;;;;;;155.13;32.78;;;;;;;;;;5014510;28;20049;-43
2023/08/27 12:49:28;;;;;;;182.25;38.13;;;;;;;;;;5005719;28;20033;-44
2023/08/27 12:51:55;;;;;;;142.07;36.47;;;;;;;;;;5015623;28;20045;-42
2023/08/27 12:54:22;;;;;;;156.07;37.63;;;;;;;;;;5013898;28;20492;-43
2023/08/27 12:56:49;;;;;;;142.68;36.60;;;;;;;;;;5016664;28;20034;-42
2023/08/27 12:59:17;;;;;;;134.85;31.58;;;;;;;;;;5011969;28;20207;-42
2023/08/27 13:01:44;;;;;;;119.38;32.85;;;;;;;;;;5015449;28;20049;-43
2023/08/27 13:04:11;;;;;;;123.15;34.78;;;;;;;;;;5009284;28;20483;-43
2023/08/27 13:06:38;;;;;;;118.15;32.65;;;;;;;;;;5013579;28;20034;-43
2023/08/27 13:09:07;;;;;;;100.70;28.90;;;;;;;;;;5001686;28;20030;-43
2023/08/27 13:11:34;;;;;;;90.38;26.70;;;;;;;;;;5008574;28;20067;-43
2023/08/27 13:14:01;;;;;;;90.45;24.38;;;;;;;;;;5009634;28;20037;-43
2023/08/27 13:16:29;;;;;;;74.60;23.45;;;;;;;;;;5013231;28;20088;-45
2023/08/27 13:18:56;;;;;;;58.05;19.20;;;;;;;;;;5001388;28;20035;-42
2023/08/27 13:21:23;;;;;;;54.03;16.17;;;;;;;;;;5013770;28;20093;-47
2023/08/27 13:23:50;;;;;;;34.97;10.70;;;;;;;;;;5007578;28;20072;-43
2023/08/27 13:26:18;;;;;;;43.65;10.32;;;;;;;;;;5013333;28;20026;-43
2023/08/27 13:28:45;;;;;;;39.83;10.32;;;;;;;;;;5001718;28;20045;-43
2023/08/27 13:31:12;;;;;;;35.83;9.50;;;;;;;;;;5013671;28;20112;-43
2023/08/27 13:33:40;;;;;;;35.58;8.88;;;;;;;;;;5008941;28;20108;-44
2023/08/27 13:36:09;;;;;;;27.77;7.70;;;;;;;;;;5009959;28;20029;-43
2023/08/27 13:38:36;;;;;;;28.15;7.10;;;;;;;;;;5003327;28;20070;-44
2023/08/27 13:41:03;;;;;;;26.48;5.57;;;;;;;;;;5011937;28;20040;-43
2023/08/27 13:43:30;;;;;;;26.20;5.43;;;;;;;;;;5009668;28;20463;-43
2023/08/27 13:45:58;;;;;;;19.75;4.78;;;;;;;;;;5011603;28;20511;-51
2023/08/27 13:48:25;;;;;;;21.48;5.35;;;;;;;;;;5001510;28;20053;-42
2023/08/27 13:50:52;;;;;;;20.13;5.00;;;;;;;;;;5009340;28;20040;-42
2023/08/27 13:53:21;;;;;;;24.77;4.07;;;;;;;;;;5009141;28;20038;-42
2023/08/27 13:55:49;;;;;;;35.55;4.97;;;;;;;;;;5010232;28;20034;-46
2023/08/27 13:58:16;;;;;;;29.95;5.30;;;;;;;;;;5006073;28;20045;-49
2023/08/27 14:00:44;;;;;;;24.95;4.07;;;;;;;;;;5003358;28;20026;-49
2023/08/27 14:03:11;;;;;;;26.48;4.00;;;;;;;;;;5001670;28;20122;-45
2023/08/27 14:05:38;;;;;;;24.83;3.33;;;;;;;;;;5012786;28;20026;-47
2023/08/27 14:08:05;;;;;;;27.27;3.38;;;;;;;;;;5008908;28;20365;-49
2023/08/27 14:10:40;;;;;;;16.63;3.40;;;;;;;;;;5002964;28;20029;-48
2023/08/27 14:13:08;;;;;;;25.77;2.95;;;;;;;;;;5012967;28;20029;-45
2023/08/27 14:15:36;;;;;;;32.10;4.28;;;;;;;;;;5012640;28;20041;-45
2023/08/27 14:18:04;;;;;;;22.17;3.58;;;;;;;;;;5009099;28;20046;-45
2023/08/27 14:20:31;;;;;;;22.10;3.13;;;;;;;;;;5005132;28;20030;-47
2023/08/27 14:22:58;;;;;;;19.98;2.67;;;;;;;;;;5005644;28;21544;-45
2023/08/27 14:25:25;;;;;;;22.50;2.90;;;;;;;;;;5011651;28;20079;-48
2023/08/27 14:27:52;;;;;;;17.45;2.70;;;;;;;;;;5011243;28;20028;-45
2023/08/27 14:30:19;;;;;;;15.85;2.20;;;;;;;;;;5002874;28;20038;-45
2023/08/27 14:32:46;;;;;;;12.38;2.00;;;;;;;;;;5012038;28;20033;-46
2023/08/27 14:35:14;;;;;;;11.43;2.33;;;;;;;;;;5003797;28;20120;-45